Port Simpson, Canada
Current Conditions -  °F | °C
As of 12:00 AM on Friday 24 Oct 2014 (Local Time) from CYPR Reporting Station
Broken Clouds Broken Clouds  
Wind Chill: 39°   Ceiling: 7000
Heat Index: 43°   Visibility: 9mi
Dew Point: 41°   Wind: 7mph
Humidity: 93%   Direction: 110°ESE
Pressure: 29.78"   Gusts: NA
Location:  54.55°N, 130.42°W
Report Text: CYPR 240700Z AUTO 11006KT 9SM BKN070 06/05 A2978 RMK SLP087
Loading
Personal Weather Stations






























Interactive Weather Map
Tropical Storm Tracking
New forecast layout! Learn more

10-Day Weather Forecast

Advertisements
Track Severe Weather on mobile